Time;durP1;ratioP1;P1;durP2;ratioP2;P2;SDS_P1;SDS_P2;PMS_P1;PMS_P2;Temp;Humidity;BMP_temperature;BMP_pressure;BME280_temperature;BME280_humidity;BME280_pressure;Samples;Min_cycle;Max_cycle;Signal;HPM_P1;HPM_P2
2023/05/03 00:02:26;;;;;;;19.52;11.02;;;;;;;12.85;100.00;100688.97;5546910;32;34302;-71
2023/05/03 00:05:30;;;;;;;22.75;10.55;;;;;;;12.87;100.00;100688.78;5546674;32;34479;-70
2023/05/03 00:08:33;;;;;;;13.75;10.00;;;;;;;12.87;100.00;100673.66;5545873;32;33573;-70
2023/05/03 00:11:36;;;;;;;14.32;9.52;;;;;;;12.87;100.00;100681.63;5545890;32;33726;-70
2023/05/03 00:14:39;;;;;;;25.25;10.02;;;;;;;12.87;100.00;100678.97;5546684;32;33897;-70
2023/05/03 00:17:42;;;;;;;12.32;9.63;;;;;;;12.85;100.00;100677.47;5546058;32;33773;-70
2023/05/03 00:20:44;;;;;;;15.30;9.60;;;;;;;12.86;100.00;100676.47;5547044;32;33847;-70
2023/05/03 00:23:47;;;;;;;14.40;10.65;;;;;;;12.86;100.00;100679.97;5549198;32;34627;-70
2023/05/03 00:26:50;;;;;;;13.20;10.75;;;;;;;12.88;100.00;100679.78;5549218;32;34379;-70
2023/05/03 00:29:53;;;;;;;14.80;10.52;;;;;;;12.91;100.00;100674.94;5549163;32;33749;-71
2023/05/03 00:32:56;;;;;;;17.60;10.27;;;;;;;12.90;100.00;100667.13;5548253;32;33819;-71
2023/05/03 00:36:06;;;;;;;67.90;11.32;;;;;;;12.84;100.00;100662.50;5549181;32;33557;-72
2023/05/03 00:39:08;;;;;;;14.13;10.03;;;;;;;12.81;100.00;100657.53;5549396;32;34392;-72
2023/05/03 00:42:12;;;;;;;14.05;9.68;;;;;;;12.75;100.00;100664.37;5549103;32;33743;-70
2023/05/03 00:45:14;;;;;;;14.02;10.63;;;;;;;12.72;100.00;100671.91;5549309;32;34231;-70
2023/05/03 00:48:18;;;;;;;12.00;8.85;;;;;;;12.78;100.00;100685.31;5549138;32;33468;-71
2023/05/03 00:51:22;;;;;;;15.35;9.38;;;;;;;12.71;100.00;100675.56;5549292;32;34484;-70
2023/05/03 00:54:29;;;;;;;9.90;8.90;;;;;;;12.69;100.00;100675.72;5548975;32;33776;-70
2023/05/03 00:57:31;;;;;;;13.65;9.20;;;;;;;12.71;100.00;100679.06;5548918;32;34398;-70
2023/05/03 01:00:35;;;;;;;11.25;9.07;;;;;;;12.72;100.00;100675.41;5548835;32;33869;-70
2023/05/03 01:03:40;;;;;;;11.38;9.05;;;;;;;12.70;100.00;100680.06;5548816;32;34518;-70
2023/05/03 01:06:54;;;;;;;14.80;9.80;;;;;;;12.62;100.00;100677.44;5548219;32;33634;-70
2023/05/03 01:10:10;;;;;;;15.10;9.43;;;;;;;12.63;100.00;100692.41;5548836;32;33656;-70
2023/05/03 01:13:20;;;;;;;11.57;9.30;;;;;;;12.64;100.00;100697.53;5548713;32;33931;-69
2023/05/03 01:16:43;;;;;;;10.27;8.90;;;;;;;12.73;100.00;100692.19;5548834;32;33684;-70
2023/05/03 01:19:50;;;;;;;11.35;9.07;;;;;;;12.68;100.00;100710.53;5549023;32;34089;-70
2023/05/03 01:23:11;;;;;;;14.02;9.43;;;;;;;12.64;100.00;100700.19;5548787;32;33556;-71
2023/05/03 01:26:34;;;;;;;17.45;9.38;;;;;;;12.69;100.00;100702.34;5548592;32;34302;-72
2023/05/03 01:29:37;;;;;;;12.43;8.57;;;;;;;12.77;100.00;100701.50;5548035;32;33948;-73
2023/05/03 01:32:51;;;;;;;19.60;9.85;;;;;;;12.83;100.00;100704.25;5548359;32;34300;-72
2023/05/03 01:36:05;;;;;;;13.38;8.80;;;;;;;12.85;100.00;100704.94;5548585;32;33710;-73
2023/05/03 01:39:20;;;;;;;12.07;9.40;;;;;;;12.86;100.00;100703.09;5547823;32;33536;-72
2023/05/03 01:42:23;;;;;;;29.67;10.15;;;;;;;12.74;100.00;100715.13;5548437;32;33771;-73
2023/05/03 01:45:27;;;;;;;16.08;9.93;;;;;;;12.69;100.00;100709.50;5547526;32;34593;-72
2023/05/03 01:48:29;;;;;;;19.83;9.75;;;;;;;12.64;100.00;100705.53;5548271;32;33645;-73
2023/05/03 01:51:32;;;;;;;14.45;9.73;;;;;;;12.73;100.00;100716.97;5548423;32;34777;-72
2023/05/03 01:54:35;;;;;;;42.53;11.30;;;;;;;12.69;100.00;100722.81;5548797;32;33683;-73
2023/05/03 01:57:38;;;;;;;13.55;9.60;;;;;;;12.66;100.00;100708.03;5548360;32;33849;-72
2023/05/03 02:00:44;;;;;;;11.27;9.60;;;;;;;12.71;100.00;100711.00;5548712;32;33527;-72
2023/05/03 02:03:47;;;;;;;24.25;11.65;;;;;;;12.68;100.00;100711.34;5548220;32;33820;-72
2023/05/03 02:06:51;;;;;;;29.45;10.82;;;;;;;12.62;100.00;100707.56;5548380;32;34287;-74
2023/05/03 02:09:54;;;;;;;14.45;10.25;;;;;;;12.66;100.00;100704.53;5548347;32;34108;-73
2023/05/03 02:12:57;;;;;;;18.35;10.18;;;;;;;12.60;100.00;100698.91;5548222;32;33613;-74
2023/05/03 02:16:00;;;;;;;17.40;10.80;;;;;;;12.59;100.00;100694.56;5548579;32;33654;-73
2023/05/03 02:19:04;;;;;;;14.13;9.90;;;;;;;12.58;100.00;100697.44;5547320;32;33670;-73
2023/05/03 02:22:06;;;;;;;12.85;10.55;;;;;;;12.61;100.00;100681.09;5548214;32;33838;-73
2023/05/03 02:25:09;;;;;;;12.55;10.60;;;;;;;12.61;100.00;100692.56;5548148;32;33522;-72
2023/05/03 02:28:12;;;;;;;13.23;10.40;;;;;;;12.58;100.00;100692.94;5548395;32;33685;-72
2023/05/03 02:31:15;;;;;;;14.00;10.35;;;;;;;12.55;100.00;100687.94;5547288;32;33889;-72
2023/05/03 02:34:18;;;;;;;17.75;10.35;;;;;;;12.55;100.00;100687.94;5548430;32;33664;-71
2023/05/03 02:37:22;;;;;;;13.23;10.43;;;;;;;12.56;100.00;100686.09;5548021;32;33839;-71
2023/05/03 02:40:24;;;;;;;12.90;11.15;;;;;;;12.54;100.00;100688.09;5548094;32;33550;-71
2023/05/03 02:43:29;;;;;;;13.82;10.75;;;;;;;12.54;100.00;100686.28;5546313;32;33776;-71
2023/05/03 02:46:32;;;;;;;16.10;10.48;;;;;;;12.64;100.00;100681.56;5547980;32;33883;-72
2023/05/03 02:49:35;;;;;;;49.17;12.07;;;;;;;12.54;100.00;100686.28;5547840;32;33634;-72
2023/05/03 02:52:37;;;;;;;90.65;12.50;;;;;;;12.54;100.00;100680.13;5548265;32;33702;-73
2023/05/03 02:55:40;;;;;;;42.62;11.10;;;;;;;12.57;100.00;100683.28;5548028;32;33486;-72
2023/05/03 02:58:43;;;;;;;15.32;10.25;;;;;;;12.57;100.00;100691.28;5547893;32;34384;-73
2023/05/03 03:01:46;;;;;;;12.27;10.48;;;;;;;12.57;100.00;100682.44;5548009;32;33466;-72
2023/05/03 03:04:49;;;;;;;13.50;11.07;;;;;;;12.70;100.00;100671.22;5547145;32;34446;-73
2023/05/03 03:07:53;;;;;;;21.30;11.30;;;;;;;12.61;100.00;100678.44;5547957;32;33592;-73
2023/05/03 03:10:56;;;;;;;15.07;10.80;;;;;;;12.59;100.00;100667.94;5548119;32;34350;-73
2023/05/03 03:13:59;;;;;;;35.03;11.75;;;;;;;12.64;100.00;100659.44;5547845;32;33770;-72
2023/05/03 03:17:07;;;;;;;13.25;11.27;;;;;;;12.62;100.00;100664.13;5545799;32;33814;-72
2023/05/03 03:20:11;;;;;;;21.85;11.35;;;;;;;12.61;100.00;100668.63;5543976;32;33486;-71
2023/05/03 03:23:15;;;;;;;15.38;11.00;;;;;;;12.58;100.00;100674.31;5547916;32;34144;-72
2023/05/03 03:26:18;;;;;;;20.55;10.57;;;;;;;12.65;100.00;100674.41;5547532;32;33773;-72
2023/05/03 03:29:21;;;;;;;14.63;9.13;;;;;;;12.71;100.00;100678.22;5547787;32;33991;-72
2023/05/03 03:32:25;;;;;;;12.40;9.98;;;;;;;12.66;100.00;100680.56;5547551;32;34340;-72
2023/05/03 03:35:29;;;;;;;14.63;10.18;;;;;;;12.49;100.00;100680.63;5547415;32;34185;-73
2023/05/03 03:38:34;;;;;;;15.05;10.55;;;;;;;12.50;100.00;100686.78;5547331;32;33791;-72
2023/05/03 03:41:38;;;;;;;14.98;10.35;;;;;;;12.50;100.00;100684.97;5547305;32;34456;-72
2023/05/03 03:44:41;;;;;;;11.60;9.88;;;;;;;12.52;100.00;100684.81;5547484;32;33927;-71
2023/05/03 03:47:44;;;;;;;11.40;9.63;;;;;;;12.54;100.00;100685.44;5547448;32;34651;-71
2023/05/03 03:50:49;;;;;;;16.85;11.12;;;;;;;12.50;100.00;100679.62;5547517;32;33557;-71
2023/05/03 03:53:52;;;;;;;12.98;9.90;;;;;;;12.45;100.00;100695.28;5547445;32;33814;-71
2023/05/03 03:56:56;;;;;;;16.67;11.07;;;;;;;12.48;100.00;100694.13;5549568;32;34450;-71
2023/05/03 04:00:00;;;;;;;15.82;10.57;;;;;;;12.49;100.00;100695.81;5535876;32;33791;-70
2023/05/03 04:03:15;;;;;;;12.75;10.43;;;;;;;12.54;100.00;100696.09;5536960;32;34717;-70
2023/05/03 04:06:20;;;;;;;14.38;10.30;;;;;;;12.53;100.00;100691.78;5548609;32;33886;-70
2023/05/03 04:09:23;;;;;;;13.13;10.25;;;;;;;12.53;100.00;100697.94;5549548;32;33579;-70
2023/05/03 04:12:29;;;;;;;13.43;10.30;;;;;;;12.51;100.00;100704.41;5548459;32;33827;-70
2023/05/03 04:15:33;;;;;;;14.60;10.02;;;;;;;12.53;100.00;100707.75;5549206;32;33732;-71
2023/05/03 04:18:37;;;;;;;11.90;9.40;;;;;;;12.62;100.00;100704.87;5535984;32;34487;-71
2023/05/03 04:21:41;;;;;;;14.68;10.02;;;;;;;12.56;100.00;100713.56;5549122;32;34199;-70
2023/05/03 04:24:44;;;;;;;14.00;10.23;;;;;;;12.63;100.00;100709.19;5549181;32;33709;-70
2023/05/03 04:27:50;;;;;;;11.77;10.15;;;;;;;12.59;100.00;100717.69;5549189;32;33732;-70
2023/05/03 04:30:57;;;;;;;15.75;10.70;;;;;;;12.62;100.00;100714.69;5549178;32;33657;-70
2023/05/03 04:34:01;;;;;;;14.30;10.85;;;;;;;12.57;100.00;100717.06;5548988;32;33922;-70
2023/05/03 04:37:07;;;;;;;15.20;10.65;;;;;;;12.55;100.00;100719.88;5549376;32;34314;-70
2023/05/03 04:40:11;;;;;;;14.55;10.98;;;;;;;12.61;100.00;100715.69;5548086;32;33766;-70
2023/05/03 04:43:15;;;;;;;12.55;10.63;;;;;;;12.66;100.00;100716.00;5548962;32;33924;-70
2023/05/03 04:46:19;;;;;;;15.25;10.85;;;;;;;12.67;100.00;100719.50;5547887;32;33741;-70
2023/05/03 04:49:22;;;;;;;15.35;10.35;;;;;;;12.70;100.00;100725.31;5548251;32;34726;-70
2023/05/03 04:52:26;;;;;;;11.85;9.98;;;;;;;12.65;100.00;100722.34;5548333;32;33887;-69
2023/05/03 04:55:30;;;;;;;12.93;9.90;;;;;;;12.66;100.00;100725.81;5548945;32;33782;-69
2023/05/03 04:58:33;;;;;;;11.30;9.23;;;;;;;12.66;100.00;100731.97;5548537;32;34578;-70
2023/05/03 05:01:36;;;;;;;12.20;9.38;;;;;;;12.62;100.00;100734.16;5548883;32;34030;-69
2023/05/03 05:04:39;;;;;;;11.23;9.43;;;;;;;12.59;100.00;100726.50;5548640;32;33887;-69
2023/05/03 05:07:43;;;;;;;12.65;9.55;;;;;;;12.64;100.00;100731.31;5548587;32;34332;-69
2023/05/03 05:10:46;;;;;;;11.98;9.23;;;;;;;12.73;100.00;100737.47;5534881;32;33749;-68
2023/05/03 05:13:50;;;;;;;13.95;11.18;;;;;;;12.69;100.00;100731.63;5533991;32;34246;-69
2023/05/03 05:16:52;;;;;;;10.77;9.27;;;;;;;12.73;100.00;100732.13;5547637;32;34296;-68
2023/05/03 05:19:56;;;;;;;12.90;8.98;;;;;;;12.78;100.00;100733.25;5546332;32;33691;-69
2023/05/03 05:23:01;;;;;;;11.40;9.18;;;;;;;12.80;100.00;100730.41;5548323;32;33991;-69
2023/05/03 05:26:05;;;;;;;10.18;8.52;;;;;;;12.89;100.00;100726.72;5543083;32;34828;-69
2023/05/03 05:29:08;;;;;;;13.40;8.18;;;;;;;12.96;100.00;100723.19;5529287;32;34258;-69
2023/05/03 05:32:11;;;;;;;13.38;8.48;;;;;;;13.06;100.00;100731.78;5528587;32;33735;-69
2023/05/03 05:35:16;;;;;;;13.68;8.48;;;;;;;13.18;100.00;100734.06;5528706;32;33513;-71
2023/05/03 05:38:19;;;;;;;14.40;8.63;;;;;;;13.28;100.00;100732.00;5539255;32;32124;-68
2023/05/03 05:41:22;;;;;;;8.65;7.68;;;;;;;13.48;100.00;100727.88;5538125;32;33948;-70
2023/05/03 05:44:26;;;;;;;10.35;8.55;;;;;;;13.37;100.00;100739.78;5547914;32;33788;-70
2023/05/03 05:47:30;;;;;;;10.45;7.60;;;;;;;13.63;100.00;100731.44;5544778;32;33622;-70
2023/05/03 05:50:35;;;;;;;10.75;7.62;;;;;;;13.74;100.00;100738.19;5546154;32;34045;-70
2023/05/03 05:53:39;;;;;;;12.00;7.65;;;;;;;14.16;100.00;100735.78;5546119;32;34605;-70
2023/05/03 05:56:42;;;;;;;9.98;7.45;;;;;;;14.40;100.00;100748.06;5537506;32;33695;-69
2023/05/03 05:59:45;;;;;;;10.40;6.90;;;;;;;14.59;100.00;100750.19;5527616;32;32990;-69
2023/05/03 06:02:48;;;;;;;13.35;6.82;;;;;;;14.60;100.00;100759.84;5528927;32;33662;-68
2023/05/03 06:05:52;;;;;;;9.00;6.60;;;;;;;14.46;100.00;100766.03;5528789;32;33944;-70
2023/05/03 06:08:54;;;;;;;8.18;6.57;;;;;;;14.49;100.00;100768.31;5528688;32;33846;-69
2023/05/03 06:11:58;;;;;;;10.82;6.95;;;;;;;14.30;100.00;100775.00;5535125;32;34333;-69
2023/05/03 06:15:03;;;;;;;9.70;6.22;;;;;;;14.29;100.00;100792.00;5539125;32;33883;-70
2023/05/03 06:18:07;;;;;;;10.95;6.45;;;;;;;14.54;100.00;100787.28;5547241;32;34243;-69
2023/05/03 06:21:10;;;;;;;12.52;6.93;;;;;;;14.26;100.00;100800.41;5543181;32;33581;-69
2023/05/03 06:24:19;;;;;;;8.63;6.43;;;;;;;14.31;100.00;100792.66;5546808;32;33740;-70
2023/05/03 06:27:23;;;;;;;10.05;6.15;;;;;;;14.57;100.00;100794.13;5545408;32;34456;-69
2023/05/03 06:30:27;;;;;;;8.32;6.35;;;;;;;14.71;100.00;100796.78;5546331;32;33752;-70
2023/05/03 06:33:32;;;;;;;8.20;5.90;;;;;;;14.66;100.00;100801.84;5544802;32;33647;-69
2023/05/03 06:36:36;;;;;;;7.20;5.47;;;;;;;14.73;100.00;100813.44;5544325;32;33968;-69
2023/05/03 06:39:39;;;;;;;7.00;6.15;;;;;;;14.98;100.00;100813.16;5542414;32;33815;-69
2023/05/03 06:42:43;;;;;;;8.05;5.70;;;;;;;15.09;100.00;100815.38;5546910;32;33767;-70
2023/05/03 06:45:47;;;;;;;14.23;5.75;;;;;;;15.52;100.00;100813.63;5536006;32;33592;-70
2023/05/03 06:48:49;;;;;;;8.63;5.35;;;;;;;15.79;100.00;100814.72;5541438;32;34436;-69
2023/05/03 06:51:52;;;;;;;8.07;5.22;;;;;;;16.25;100.00;100823.19;5537343;32;34528;-70
2023/05/03 06:54:55;;;;;;;6.12;4.62;;;;;;;16.08;100.00;100823.44;5539119;32;33075;-70
2023/05/03 06:57:59;;;;;;;9.00;7.03;;;;;;;16.23;100.00;100827.88;5546737;32;33533;-70
2023/05/03 07:01:02;;;;;;;6.70;5.47;;;;;;;16.29;100.00;100825.28;5527184;32;33771;-70
2023/05/03 07:04:05;;;;;;;8.27;4.68;;;;;;;16.80;100.00;100819.66;5527969;32;33886;-70
2023/05/03 07:07:08;;;;;;;5.25;3.75;;;;;;;17.43;100.00;100826.53;5537215;32;33750;-70
2023/05/03 07:10:11;;;;;;;4.28;3.67;;;;;;;17.40;100.00;100824.28;5537343;32;34015;-70
2023/05/03 07:13:14;;;;;;;8.35;3.85;;;;;;;18.33;100.00;100815.38;5527554;32;35213;-70
2023/05/03 07:16:18;;;;;;;4.43;3.00;;;;;;;19.12;100.00;100816.03;5527428;32;33597;-70
2023/05/03 07:19:21;;;;;;;7.75;3.20;;;;;;;19.80;100.00;100818.22;5528589;32;34338;-70
2023/05/03 07:22:24;;;;;;;7.25;3.15;;;;;;;21.47;97.94;100821.53;5527821;32;34513;-70
2023/05/03 07:25:27;;;;;;;6.50;2.85;;;;;;;21.61;87.58;100831.09;5527713;32;34504;-70
2023/05/03 07:28:29;;;;;;;5.87;3.10;;;;;;;21.17;94.36;100826.91;5528257;32;33677;-70
2023/05/03 07:31:33;;;;;;;4.80;3.28;;;;;;;21.22;88.68;100823.53;5534591;32;34638;-70
2023/05/03 07:34:35;;;;;;;5.45;3.08;;;;;;;20.93;100.00;100827.78;5543249;32;33775;-71
2023/05/03 07:37:38;;;;;;;5.72;3.03;;;;;;;21.28;87.86;100829.91;5527849;32;34593;-70
2023/05/03 07:40:42;;;;;;;4.45;2.97;;;;;;;20.98;93.55;100833.34;5526071;32;33814;-70
2023/05/03 07:43:45;;;;;;;4.45;3.37;;;;;;;20.45;93.53;100826.81;5530040;32;33815;-70
2023/05/03 07:46:48;;;;;;;6.40;2.80;;;;;;;19.73;97.78;100834.41;5528230;32;33813;-69
2023/05/03 07:49:51;;;;;;;8.23;3.87;;;;;;;19.94;90.64;100838.62;5522947;32;156377;-70
2023/05/03 07:52:55;;;;;;;10.02;3.12;;;;;;;19.74;100.00;100835.22;5527597;32;34475;-70
2023/05/03 07:55:58;;;;;;;4.43;3.55;;;;;;;19.20;100.00;100835.66;5544005;32;34734;-70
2023/05/03 07:59:01;;;;;;;5.65;3.70;;;;;;;18.49;100.00;100830.22;5539044;32;33685;-69
2023/05/03 08:02:12;;;;;;;7.97;3.83;;;;;;;18.54;100.00;100831.25;5542333;32;33551;-70
2023/05/03 08:05:18;;;;;;;8.32;4.22;;;;;;;18.82;100.00;100833.72;5545885;32;34495;-70
2023/05/03 08:08:20;;;;;;;7.20;3.70;;;;;;;19.12;100.00;100834.06;5545806;32;34235;-69
2023/05/03 08:11:26;;;;;;;6.80;4.00;;;;;;;19.47;100.00;100834.53;5546807;32;34757;-69
2023/05/03 08:14:29;;;;;;;5.25;3.40;;;;;;;19.72;100.00;100840.81;5546528;32;33822;-70
2023/05/03 08:17:38;;;;;;;5.70;3.30;;;;;;;18.70;100.00;100834.56;5542207;32;34810;-69
2023/05/03 08:20:42;;;;;;;6.37;3.87;;;;;;;18.73;100.00;100847.59;5537937;32;33606;-69
2023/05/03 08:23:45;;;;;;;7.07;3.30;;;;;;;19.16;100.00;100851.41;5546399;32;33657;-70
2023/05/03 08:26:49;;;;;;;5.05;4.00;;;;;;;18.88;100.00;100846.28;5543217;32;34558;-71
2023/05/03 08:29:52;;;;;;;8.68;4.60;;;;;;;19.93;100.00;100840.47;5529952;32;34597;-69
2023/05/03 08:32:55;;;;;;;5.03;4.20;;;;;;;19.71;100.00;100843.72;5526819;32;33572;-69
2023/05/03 08:35:58;;;;;;;6.15;4.12;;;;;;;19.26;100.00;100843.72;5526415;32;34503;-69
2023/05/03 08:39:05;;;;;;;7.50;3.75;;;;;;;18.87;100.00;100843.84;5526781;32;33488;-69
2023/05/03 08:42:08;;;;;;;10.00;3.90;;;;;;;18.66;100.00;100851.09;5527451;32;33605;-70
2023/05/03 08:45:15;;;;;;;9.07;4.07;;;;;;;19.13;100.00;100846.44;5529344;32;33683;-70
2023/05/03 08:48:18;;;;;;;9.50;3.70;;;;;;;20.08;100.00;100852.81;5527650;32;34535;-72
2023/05/03 08:51:23;;;;;;;7.75;3.80;;;;;;;20.68;97.97;100852.09;5533992;32;33957;-70
2023/05/03 08:54:28;;;;;;;6.30;3.53;;;;;;;22.91;79.66;100855.44;5548156;32;33854;-70
2023/05/03 08:57:36;;;;;;;;;;;;;;;23.29;72.71;100858.41;5535845;32;33541;-70
2023/05/03 09:00:43;;;;;;;7.40;3.70;;;;;;;23.24;71.65;100860.19;5527565;32;34029;-70
2023/05/03 09:03:50;;;;;;;5.07;3.65;;;;;;;22.66;74.58;100852.12;5528601;32;33626;-70
2023/05/03 09:07:06;;;;;;;5.50;3.45;;;;;;;22.64;74.19;100852.38;5527722;32;33644;-70
2023/05/03 09:10:23;;;;;;;5.20;3.35;;;;;;;22.48;75.93;100858.47;5528971;32;33580;-71
2023/05/03 09:13:30;;;;;;;4.25;3.10;;;;;;;21.40;81.12;100855.06;5527869;32;33855;-67
2023/05/03 09:16:33;;;;;;;6.85;3.40;;;;;;;21.48;77.09;100855.59;5527900;32;34595;-70
2023/05/03 09:19:50;;;;;;;4.78;3.30;;;;;;;21.58;77.97;100852.34;5528390;32;33521;-69
2023/05/03 09:22:55;;;;;;;5.47;3.70;;;;;;;21.56;74.97;100855.28;5528949;32;33071;-70
2023/05/03 09:25:59;;;;;;;4.85;3.40;;;;;;;21.10;76.98;100855.81;5527534;32;34769;-70
2023/05/03 09:29:06;;;;;;;6.65;3.80;;;;;;;22.20;70.56;100856.44;5527660;32;32561;-69
2023/05/03 09:32:11;;;;;;;5.35;3.42;;;;;;;22.00;71.06;100859.44;5528357;32;34444;-71
2023/05/03 09:35:15;;;;;;;6.18;4.22;;;;;;;21.47;73.82;100853.13;5528539;32;33819;-70
2023/05/03 09:38:28;;;;;;;4.90;3.75;;;;;;;20.92;76.05;100857.66;5528316;32;33702;-70
2023/05/03 09:41:31;;;;;;;12.25;3.90;;;;;;;21.35;72.74;100857.66;5528715;32;33795;-71
2023/05/03 09:44:50;;;;;;;5.00;3.70;;;;;;;22.19;75.45;100851.25;5527645;32;33896;-70
2023/05/03 09:47:54;;;;;;;4.40;3.33;;;;;;;21.57;71.99;100851.53;5530747;32;33723;-71
2023/05/03 09:51:06;;;;;;;5.97;3.55;;;;;;;22.40;68.82;100853.41;5555428;32;33806;-71
2023/05/03 09:54:14;;;;;;;8.13;3.40;;;;;;;21.67;75.95;100848.28;5554901;32;33514;-68
2023/05/03 09:57:17;;;;;;;7.93;3.53;;;;;;;21.72;76.55;100856.50;5552870;32;33973;-69
2023/05/03 10:00:20;;;;;;;7.03;3.33;;;;;;;21.74;78.89;100853.56;5546421;32;34579;-70
2023/05/03 10:03:34;;;;;;;5.32;3.17;;;;;;;20.51;86.59;100845.66;5528873;32;33584;-69
2023/05/03 10:06:43;;;;;;;4.70;3.25;;;;;;;21.16;79.16;100854.09;5528119;32;33667;-69
2023/05/03 10:09:47;;;;;;;11.40;4.22;;;;;;;21.01;82.30;100848.25;5528691;32;33845;-71
2023/05/03 10:12:52;;;;;;;9.48;4.20;;;;;;;21.54;76.49;100854.66;5528922;32;33265;-70
2023/05/03 10:16:02;;;;;;;7.43;3.90;;;;;;;20.63;81.44;100837.63;5528475;32;35237;-70
2023/05/03 10:19:40;;;;;;;6.10;3.72;;;;;;;20.69;82.55;100840.28;5527918;32;34807;-71
2023/05/03 10:23:02;;;;;;;8.23;4.20;;;;;;;21.15;79.36;100850.63;5528516;32;33503;-70
2023/05/03 10:26:04;;;;;;;6.57;4.32;;;;;;;21.25;79.83;100844.69;5527453;32;33867;-70
2023/05/03 10:29:46;;;;;;;5.10;3.65;;;;;;;20.59;82.80;100831.88;5528871;32;34519;-73
2023/05/03 10:32:49;;;;;;;5.57;3.58;;;;;;;21.22;80.06;100834.31;5528576;32;34421;-71
2023/05/03 10:35:53;;;;;;;5.80;4.10;;;;;;;20.70;79.36;100841.94;5533105;32;33572;-70
2023/05/03 10:38:56;;;;;;;6.95;4.18;;;;;;;20.93;77.20;100843.13;5527616;32;33593;-69
2023/05/03 10:42:08;;;;;;;8.48;3.78;;;;;;;20.73;75.71;100837.94;5534383;32;33904;-69
2023/05/03 10:45:27;;;;;;;11.25;4.05;;;;;;;21.37;73.25;100840.16;5527905;32;33868;-69
2023/05/03 10:48:32;;;;;;;6.32;3.80;;;;;;;20.23;78.90;100835.28;5542800;32;34937;-71
2023/05/03 10:51:37;;;;;;;5.87;3.72;;;;;;;19.92;80.59;100829.91;5547044;32;33735;-70
2023/05/03 10:54:40;;;;;;;5.97;4.00;;;;;;;19.46;83.21;100830.22;5541837;32;33942;-70
2023/05/03 10:57:45;;;;;;;5.43;3.90;;;;;;;20.21;78.80;100823.06;5539948;32;35075;-70
2023/05/03 11:00:50;;;;;;;7.18;3.87;;;;;;;20.61;76.09;100835.19;5528371;32;33673;-69
2023/05/03 11:03:55;;;;;;;5.05;3.70;;;;;;;20.08;79.46;100823.19;5528186;32;33521;-70
2023/05/03 11:06:59;;;;;;;7.32;3.80;;;;;;;19.39;81.95;100816.75;5526796;32;34418;-70
2023/05/03 11:10:18;;;;;;;10.85;4.05;;;;;;;20.42;80.19;100830.81;5528490;32;34274;-69
2023/05/03 11:13:21;;;;;;;7.03;3.60;;;;;;;20.88;75.14;100824.94;5528162;32;33759;-69
2023/05/03 11:16:25;;;;;;;6.80;4.00;;;;;;;20.89;74.16;100826.59;5528069;32;33780;-69
2023/05/03 11:19:28;;;;;;;7.32;3.67;;;;;;;20.47;75.16;100822.88;5528208;32;34757;-70
2023/05/03 11:22:31;;;;;;;6.47;4.12;;;;;;;20.70;77.17;100823.06;5527701;32;34455;-69
2023/05/03 11:25:34;;;;;;;7.43;4.00;;;;;;;20.10;79.28;100829.97;5528893;32;34516;-69
2023/05/03 11:28:38;;;;;;;9.20;3.80;;;;;;;20.39;76.44;100826.66;5527145;32;33677;-69
2023/05/03 11:31:42;;;;;;;9.05;3.60;;;;;;;20.81;77.78;100832.28;5539019;32;34855;-69
2023/05/03 11:34:45;;;;;;;5.15;3.78;;;;;;;20.38;76.45;100826.91;5539700;32;33674;-69
2023/05/03 11:37:50;;;;;;;7.85;3.70;;;;;;;20.61;77.91;100823.56;5547333;32;34497;-69
2023/05/03 11:40:53;;;;;;;6.93;3.75;;;;;;;20.47;79.36;100819.34;5553980;32;34360;-70
2023/05/03 11:43:56;;;;;;;7.12;3.92;;;;;;;20.72;78.27;100831.72;5531709;32;33582;-69
2023/05/03 11:47:17;;;;;;;8.23;3.60;;;;;;;20.75;75.38;100822.38;5528195;32;33820;-69
2023/05/03 11:50:46;;;;;;;4.87;3.58;;;;;;;20.25;79.11;100805.41;5527449;32;33704;-69
2023/05/03 11:53:49;;;;;;;6.03;3.47;;;;;;;19.97;82.34;100813.94;5527593;32;33833;-68
2023/05/03 11:56:57;;;;;;;6.40;3.87;;;;;;;20.28;78.19;100823.84;5527830;32;33735;-70
2023/05/03 12:00:16;;;;;;;6.50;3.60;;;;;;;19.81;81.98;100812.59;5533200;32;33834;-69
2023/05/03 12:03:23;;;;;;;9.70;3.78;;;;;;;19.47;84.35;100810.31;5545541;32;33491;-69
2023/05/03 12:06:33;;;;;;;6.50;3.67;;;;;;;19.43;87.29;100811.75;5546303;32;33748;-67
2023/05/03 12:09:39;;;;;;;8.07;4.03;;;;;;;19.41;86.20;100811.97;5545736;32;33874;-68
2023/05/03 12:12:55;;;;;;;7.72;3.95;;;;;;;19.60;85.35;100815.63;5545834;32;33861;-67
2023/05/03 12:16:01;;;;;;;7.70;4.28;;;;;;;19.67;84.33;100816.41;5546151;32;34943;-69
2023/05/03 12:19:27;;;;;;;9.82;4.03;;;;;;;19.68;87.63;100810.00;5548887;32;35203;-69
2023/05/03 12:22:36;;;;;;;6.35;4.00;;;;;;;19.72;85.59;100813.91;5546311;32;33812;-69
2023/05/03 12:25:39;;;;;;;5.25;3.37;;;;;;;20.25;85.21;100817.00;5529772;32;33691;-70
2023/05/03 12:28:47;;;;;;;13.38;3.45;;;;;;;19.95;85.81;100819.53;5529547;32;33584;-70
2023/05/03 12:31:50;;;;;;;9.43;3.60;;;;;;;19.59;85.72;100802.38;5529267;32;33247;-68
2023/05/03 12:34:56;;;;;;;4.62;3.28;;;;;;;19.73;85.46;100795.88;5528844;32;34794;-69
2023/05/03 12:38:05;;;;;;;10.15;3.60;;;;;;;19.82;84.32;100808.84;5528373;32;33803;-69
2023/05/03 12:41:11;;;;;;;6.70;3.90;;;;;;;20.32;80.56;100806.22;5528891;32;34391;-70
2023/05/03 12:44:24;;;;;;;7.07;3.47;;;;;;;19.87;82.87;100795.56;5528475;32;33823;-68
2023/05/03 12:47:30;;;;;;;6.80;3.62;;;;;;;19.99;81.19;100795.69;5529280;32;34236;-69
2023/05/03 12:50:38;;;;;;;6.10;3.35;;;;;;;20.28;78.70;100791.53;5529260;32;33846;-69
2023/05/03 12:53:46;;;;;;;6.43;3.25;;;;;;;19.47;82.65;100781.53;5546535;32;34800;-70
2023/05/03 12:56:50;;;;;;;5.62;3.60;;;;;;;19.35;86.99;100774.34;5548804;32;33783;-68
2023/05/03 12:59:57;;;;;;;5.03;3.45;;;;;;;19.55;85.50;100769.72;5547940;32;33819;-68
2023/05/03 13:03:05;;;;;;;7.80;3.70;;;;;;;19.26;85.74;100778.31;5547481;32;33199;-68
2023/05/03 13:06:11;;;;;;;8.82;3.60;;;;;;;19.18;87.49;100782.06;5548726;32;33897;-69
2023/05/03 13:09:18;;;;;;;7.87;3.75;;;;;;;19.05;87.96;100772.22;5543376;32;34622;-70
2023/05/03 13:12:26;;;;;;;;;;;;;;;19.03;90.17;100778.81;5531537;32;33674;-69
2023/05/03 13:15:30;;;;;;;9.30;3.95;;;;;;;18.95;90.95;100771.84;5529358;32;33964;-69
2023/05/03 13:18:34;;;;;;;4.47;3.65;;;;;;;18.87;99.56;100782.84;5529266;32;34431;-68
2023/05/03 13:21:37;;;;;;;11.60;4.12;;;;;;;18.43;100.00;100788.06;5528323;32;33822;-68
2023/05/03 13:24:42;;;;;;;7.12;4.18;;;;;;;18.58;100.00;100778.78;5529928;32;34041;-68
2023/05/03 13:27:52;;;;;;;8.57;4.18;;;;;;;18.20;100.00;100778.56;5548135;32;33503;-69
2023/05/03 13:30:56;;;;;;;8.00;3.72;;;;;;;18.74;100.00;100769.41;5542347;32;34021;-69
2023/05/03 13:33:58;;;;;;;7.28;3.62;;;;;;;18.92;100.00;100763.38;5548261;32;34216;-69
2023/05/03 13:37:03;;;;;;;7.30;3.85;;;;;;;19.36;100.00;100768.75;5547969;32;33569;-69
2023/05/03 13:40:06;;;;;;;8.70;3.78;;;;;;;19.50;100.00;100767.66;5547819;32;34337;-69
2023/05/03 13:43:10;;;;;;;5.90;3.42;;;;;;;19.80;100.00;100765.16;5548398;32;33788;-69
2023/05/03 13:46:13;;;;;;;8.05;4.03;;;;;;;20.18;100.00;100767.78;5548101;32;33500;-69
2023/05/03 13:49:16;;;;;;;8.38;3.75;;;;;;;19.98;100.00;100764.41;5545879;32;33585;-69
2023/05/03 13:52:18;;;;;;;5.80;3.40;;;;;;;19.92;100.00;100759.91;5542648;32;33725;-70
2023/05/03 13:55:21;;;;;;;4.50;3.33;;;;;;;19.57;95.69;100766.78;5538021;32;34000;-69
2023/05/03 13:58:24;;;;;;;7.93;3.72;;;;;;;18.70;98.78;100752.06;5546990;32;33730;-69
2023/05/03 14:01:28;;;;;;;4.25;3.50;;;;;;;19.17;95.27;100758.91;5547948;32;33844;-69
2023/05/03 14:04:31;;;;;;;6.35;3.45;;;;;;;19.23;93.22;100760.75;5528760;32;33767;-69
2023/05/03 14:07:34;;;;;;;8.30;3.28;;;;;;;18.97;95.66;100761.72;5528411;32;33958;-70
2023/05/03 14:10:39;;;;;;;5.03;3.60;;;;;;;19.32;92.40;100758.63;5540576;32;33735;-69